METAR Data
IDs: Format: Raw Decoded Include TAF

Data at: 0248 UTC 25 Jan 2020

METAR for:KOXV (Knoxville Muni, IA, US)
Text:KOXV 250235Z AUTO 31012KT 8SM -UP OVC011 M01/M01 A2995 RMK AO2
Temperature: -1.0°C ( 30°F)
Dewpoint: -1.0°C ( 30°F) [RH = 100%]
Pressure (altimeter):29.95 inches Hg (1014.3 mb)
Winds:from the NW (310 degrees) at 14 MPH (12 knots; 6.2 m/s)
Visibility: 8 sm ( 13 km)
Ceiling:1100 feet AGL
Clouds: overcast cloud deck at 1100 feet AGL
Weather:UP (unknown precipitation)
QC Flag:automated observation with no human augmentation